Nearby METAR (Airport) Reports

 

KPRN - Greenville, Alabama, USA
Distance from station: WNW 17mi, 28km
Updated: Wed, 01-Apr-2020 11:56pm CDT
Clear
Clear
 Wind from N
Wind: N 5 mph , 7 km/h
Temperature: 52°F , 11°C
Dew Point: 41°F , 5°C
Humidity: 67%
Barometer: 30.03 inHg , 1016.9 hPa
Clouds: Clear
Visibility: 10 miles , 16 km
2020/04/02 04:56 KPRN 020456Z AUTO 35004KT 10SM CLR 11/05 A3003 RMK AO2 SLP166 T01060050
KTOI - Troy, Alabama, USA
Distance from station: ENE 21mi, 34km
Updated: Wed, 01-Apr-2020 8:53pm CDT
NOT Current
Clear
Clear
 Wind from calm
Wind: Calm
Temperature: 54°F , 12°C
Dew Point: 43°F , 6°C
Humidity: 67%
Barometer: 30.00 inHg , 1015.9 hPa
Clouds: Clear
Visibility: 10 miles , 16 km
2020/04/02 01:53 KTOI 020153Z AUTO 00000KT 10SM CLR 12/06 A3000 RMK AO2 SLP157 T01220061
K79J - Andalusia/Opp Ar, Alabama, USA
Distance from station: S 29mi, 47km
Updated: Wed, 01-Apr-2020 11:56pm CDT
Clear
Clear
 Wind from calm
Wind: Calm
Temperature: 54°F , 12°C
Dew Point: 46°F , 8°C
Humidity: 77%
Barometer: 30.03 inHg , 1016.9 hPa
Clouds: Clear
Visibility: 10 miles , 16 km
2020/04/02 04:56 K79J 020456Z AUTO 00000KT 10SM CLR 12/08 A3003 RMK AO2 SLP164 T01170078 402390089
 
KMGM - Montgomery, Alabama, USA
Distance from station: N 39mi, 63km
Updated: Wed, 01-Apr-2020 11:53pm CDT
Clear
Clear
 Wind from NE
Wind: NE 7 mph , 11 km/h
Temperature: 54°F , 12°C
Dew Point: 39°F , 4°C
Humidity: 58%
Barometer: 30.04 inHg , 1017.3 hPa
Clouds: Clear
Visibility: 10 miles , 16 km
2020/04/02 04:53 KMGM 020453Z AUTO 05006KT 10SM CLR 12/04 A3004 RMK AO2 SLP172 T01170044
KMXF - Maxwell Afb/Mgm, Alabama, USA
Distance from station: N 44mi, 70km
Updated: Wed, 01-Apr-2020 11:56pm CDT
Clear
Clear
 Wind from calm
Wind: Calm
Temperature: 54°F , 12°C
Dew Point: 41°F , 5°C
Humidity: 63%
Barometer: 30.04 inHg , 1017.3 hPa
Clouds: Clear
Visibility: 10 miles , 16 km
2020/04/02 04:56 KMXF 020456Z AUTO 00000KT 10SM CLR 12/05 A3004 RMK AO2 SLP175 T01230048 $
KLOR - Lowe Ahp/Ft. Ruc, Alabama, USA
Distance from station: SE 44mi, 71km
Updated: Wed, 01-Apr-2020 11:58pm CDT
Clear
Clear
 Wind from calm
Wind: Calm
Temperature: 46°F , 8°C
Dew Point: 46°F , 8°C
Humidity: 100%
Barometer: 30.02 inHg , 1016.6 hPa
Clouds: Clear
Visibility: 10 miles , 16 km
2020/04/02 04:58 KLOR 020458Z AUTO 00000KT 10SM CLR 08/08 A3002 RMK AO2 SLP149 T00810075
 
KGZH - Evergreen, Alabama, USA
Distance from station: WSW 46mi, 75km
Updated: Wed, 01-Apr-2020 11:53pm CDT
Clear
Clear
 Wind from calm
Wind: Calm
Temperature: 50°F , 10°C
Dew Point: 46°F , 8°C
Humidity: 88%
Barometer: 30.04 inHg , 1017.3 hPa
Clouds: Clear
Visibility: 10 miles , 16 km
2020/04/02 04:53 KGZH 020453Z AUTO 00000KT 10SM CLR 10/08 A3004 RMK AO2 SLP170 T01000078
K0J4 - Florala Muni, Alabama, USA
Distance from station: S 47mi, 76km
Updated: Wed, 01-Apr-2020 11:58pm CDT
Clear
Clear
 Wind from calm
Wind: Calm
Temperature: 48°F , 9°C
Dew Point: 45°F , 7°C
Humidity: 87%
Barometer: 30.04 inHg , 1017.3 hPa
Clouds: Clear
Visibility: 10 miles , 16 km
2020/04/02 04:58 K0J4 020458Z AUTO 00000KT 10SM CLR 09/07 A3004 RMK AO2 SLP171 T00940067 402220072
KOZR - Ozark/Cairns Aaf, Alabama, USA
Distance from station: SE 49mi, 78km
Updated: Wed, 01-Apr-2020 11:56pm CDT
Clear
Clear
 Wind from N
Wind: N 8 mph , 13 km/h
Temperature: 54°F , 12°C
Dew Point: 39°F , 4°C
Humidity: 58%
Barometer: 30.01 inHg , 1016.3 hPa
Clouds: Clear
Visibility: 10 miles , 16 km
2020/04/02 04:56 KOZR 020456Z AUTO 01007KT 10SM CLR 12/04 A3001 RMK AO2 SLP164 T01170042 $
 
KHEY - Ft Rucker/Hanche, Alabama, USA
Distance from station: ESE 49mi, 79km
Updated: Wed, 01-Apr-2020 11:58pm CDT
Clear
Clear
 Wind from NNE
Wind: NNE 6 mph , 9 km/h
Temperature: 54°F , 12°C
Dew Point: 39°F , 4°C
Humidity: 58%
Barometer: 30.01 inHg , 1016.3 hPa
Clouds: Clear
Visibility: 10 miles , 16 km
2020/04/02 04:58 KHEY 020458Z AUTO 02005KT 10SM CLR 12/04 A3001 RMK AO2 SLP164 T01240043 $
KDHN - Dothan, Alabama, USA
Distance from station: ESE 61mi, 97km
Updated: Wed, 01-Apr-2020 11:53pm CDT
Clear
Clear
 Wind from NNE
Wind: NNE 6 mph , 9 km/h
Temperature: 52°F , 11°C
Dew Point: 43°F , 6°C
Humidity: 72%
Barometer: 30.05 inHg , 1017.6 hPa
Clouds: Clear
Visibility: 10 miles , 16 km
2020/04/02 04:53 KDHN 020453Z AUTO 02005KT 10SM CLR 11/06 A3005 RMK AO2 SLP172 T01110061 402220078
KCEW - Crestview, Florida, USA
Distance from station: S 66mi, 107km
Updated: Wed, 01-Apr-2020 11:53pm CDT
Clear
Clear
 Wind from calm
Wind: Calm
Temperature: 52°F , 11°C
Dew Point: 46°F , 8°C
Humidity: 82%
Barometer: 30.03 inHg , 1016.9 hPa
Clouds: Clear
Visibility: 10 miles , 16 km
2020/04/02 04:53 KCEW 020453Z AUTO 00000KT 10SM CLR 11/08 A3003 RMK AO2 SLP167 T01060078
 
KEUF - Eufaula, Alabama, USA
Distance from station: ENE 73mi, 118km
Updated: Mon, 04-Mar-2019 12:58pm CST
NOT Current

 
Barometer: 30.10 inHg , 1019.3 hPa
2019/03/04 18:58 KEUF 041858Z AUTO A3010 RMK AO2 RAEMM TSB02B32 SLPNO PWINO FZRANO TSNO $
KJKA - Gulf Shores, Alabama, USA
Distance from station: SSW 132mi, 212km
Updated: Wed, 01-Apr-2020 11:55pm CDT
Clear
Clear
 Wind from N
Wind: N 5 mph , 7 km/h
Temperature: 54°F , 12°C
Dew Point: 54°F , 12°C
Humidity: 100%
Barometer: 30.02 inHg , 1016.6 hPa
Clouds: Clear
Visibility: 10 miles , 16 km
2020/04/02 04:55 KJKA 020455Z AUTO 36004KT 10SM CLR 12/12 A3002 RMK AO2 T01200118 402340053
KLSF - Ft Benning/Colum, Georgia, USA
Distance from station: SNE 89mi, 143km
Updated: Wed, 01-Apr-2020 11:56pm CDT
Mostly cloudy
Mostly cloudy
 Wind from N
Wind: N 6 mph , 9 km/h
Temperature: 52°F , 11°C
Dew Point: 41°F , 5°C
Humidity: 67%
Barometer: 30.03 inHg , 1016.9 hPa
Clouds: Mostly cloudy
Visibility: 10 miles , 16 km
Cloud details: Mostly cloudy 22000 ft
2020/04/02 04:56 KLSF 020456Z AUTO 36005KT 10SM BKN220 11/05 A3003 RMK AO2 SLP174 T01130050 402040054 $
 
KMOB - Mobile/Bates, Alabama, USA
Distance from station: SW 125mi, 202km
Updated: Wed, 01-Apr-2020 11:56pm CDT
Clear
Clear
 Wind from calm
Wind: Calm
Temperature: 52°F , 11°C
Dew Point: 48°F , 9°C
Humidity: 88%
Barometer: 30.04 inHg , 1017.3 hPa
Clouds: Clear
Visibility: 10 miles , 16 km
2020/04/02 04:56 KMOB 020456Z AUTO 00000KT 10SM CLR 11/09 A3004 RMK AO2 SLP170 T01110094
KNMM - Meridian Nas, Mississippi, USA
Distance from station: WNW 151mi, 243km
Updated: Wed, 01-Apr-2020 11:56pm CDT
Partly cloudy
Partly cloudy
 Wind from calm
Wind: Calm
Temperature: 46°F , 8°C
Dew Point: 45°F , 7°C
Humidity: 93%
Barometer: 30.05 inHg , 1017.6 hPa
Clouds: Partly cloudy
Visibility: 10 miles , 16 km
Cloud details: Partly cloudy 21000 ft
2020/04/02 04:56 KNMM 020456Z 00000KT 10SM SCT210 08/07 A3005 RMK AO2 SLP186 T00830067 $
KQHY - Hurlbert (Ft Walton Bch), Florida, USA
Distance from station: S 94mi, 151km
Updated: Wed, 01-Apr-2020 11:56pm CDT
Clear
Clear
 Wind from N
Wind: N 3 mph , 6 km/h
Temperature: 61°F , 16°C
Dew Point: 46°F , 8°C
Humidity: 59%
Barometer: 30.02 inHg , 1016.6 hPa
Clouds: Clear
Visibility: 10 miles , 16 km
2020/04/02 04:56 KQHY 020456Z AUTO 01003KT 10SM CLR 16/08 A3002 RMK AO2 SLPNO T01550075 401600085
 
KTCL - Tuscaloosa, Alabama, USA
Distance from station: NNW 129mi, 207km
Updated: Wed, 01-Apr-2020 11:53pm CDT
Clear
Clear
 Wind from calm
Wind: Calm
Temperature: 52°F , 11°C
Dew Point: 45°F , 7°C
Humidity: 77%
Barometer: 30.06 inHg , 1017.9 hPa
Clouds: Clear
Visibility: 10 miles , 16 km
2020/04/02 04:53 KTCL 020453Z AUTO 00000KT 10SM CLR 11/07 A3006 RMK AO2 SLP177 T01060072
KECP - Panama City, Florida, USA
Distance from station: SSE 122mi, 196km
Updated: Wed, 01-Apr-2020 11:53pm CDT
Clear
Clear
 Wind from calm
Wind: Calm
Temperature: 50°F , 10°C
Dew Point: 45°F , 7°C
Humidity: 82%
Barometer: 30.00 inHg , 1015.9 hPa
Clouds: Clear
Visibility: 10 miles , 16 km
2020/04/02 04:53 KECP 020453Z AUTO 00000KT 10SM CLR 10/07 A3000 RMK AO2 SLP172 T01000072 402280078
KCBM - Columbus Afb, Mississippi, USA
Distance from station: NW 175mi, 282km
Updated: Thu, 02-Apr-2020 12:01am CDT
Mist, Clear
Mist, Clear
 Wind from calm
Wind: Calm
Temperature: 50°F , 10°C
Dew Point: 46°F , 8°C
Humidity: 88%
Barometer: 30.05 inHg , 1017.6 hPa
Summary: Mist
Clouds: Clear
Visibility: 2 3/4 miles , 4.4 km
2020/04/02 05:01 KCBM 020501Z AUTO 00000KT 2 3/4SM BR CLR 10/08 A3005 RMK AO2 VIS 2 3/4V5 SLP179 $
 
KBHM - Birmingham, Alabama, USA
Distance from station: N 132mi, 212km
Updated: Wed, 01-Apr-2020 11:53pm CDT
Clear
Clear
 Wind from ENE
Wind: ENE 8 mph , 13 km/h
Temperature: 54°F , 12°C
Dew Point: 37°F , 3°C
Humidity: 54%
Barometer: 30.07 inHg , 1018.3 hPa
Clouds: Clear
Visibility: 10 miles , 16 km
2020/04/02 04:53 KBHM 020453Z 07007KT 10SM CLR 12/03 A3007 RMK AO2 SLP180 T01170028
KAAF - Apalachicola, Florida, USA
Distance from station: SSE 156mi, 250km
Updated: Wed, 01-Apr-2020 11:53pm CDT

 
Barometer: 30.01 inHg , 1016.3 hPa
2020/04/02 04:53 KAAF 020453Z AUTO A3001 RMK AO2 SLP164 PWINO $
KATL - Atlanta, Georgia, USA
Distance from station: NE 177mi, 287km
Updated: Wed, 01-Apr-2020 11:52pm CDT
Mostly cloudy
Mostly cloudy
 Wind from NW
Wind: NW 7 mph , 11 km/h
Temperature: 46°F , 8°C
Wind Chill: 42°F , 6°C
Dew Point: 36°F , 2°C
Humidity: 66%
Barometer: 30.04 inHg , 1017.3 hPa
Clouds: Mostly cloudy
Visibility: 10 miles , 16 km
Cloud details: Partly cloudy 20000 ft
Mostly cloudy 25000 ft
2020/04/02 04:52 KATL 020452Z 32006KT 10SM SCT200 BKN250 08/02 A3004 RMK AO2 SLP175 T00830017 401610056
 
KGPT - Gulfport, Mississippi, USA
Distance from station: SW 192mi, 309km
Updated: Wed, 01-Apr-2020 11:53pm CDT
Clear
Clear
 Wind from calm
Wind: Calm
Temperature: 57°F , 14°C
Dew Point: 50°F , 10°C
Humidity: 77%
Barometer: 30.01 inHg , 1016.3 hPa
Clouds: Clear
Visibility: 10 miles , 16 km
2020/04/02 04:53 KGPT 020453Z AUTO 00000KT 10SM CLR 14/10 A3001 RMK AO2 SLP162 T01390100
KNEW - New Orleans/Lake, Louisiana, USA
Distance from station: SW 255mi, 410km
Updated: Wed, 01-Apr-2020 11:53pm CDT

 
2020/04/02 04:53 KNEW 020453Z AUTO RMK AO2 SLPNO PWINO $
KP92 - Salt Point, Louisiana, USA
Distance from station: SW 347mi, 559km
Updated: Wed, 01-Apr-2020 11:59pm CDT

 Wind from calm
Wind: Calm
Temperature: 61°F , 16°C
Dew Point: 55°F , 13°C
Humidity: 83%
Barometer: 30.02 inHg , 1016.6 hPa
2020/04/02 04:59 KP92 020459Z AUTO 00000KT 16/13 A3002 RMK AO1 SLP164 T01560133